Hlavní strana
METAR-TAF:

METAR-TAF

Letiště :

Fayetteville, Severní Karolína, Spojené státy americké

zeměpisná šířka: 34-59-22N, zeměpisná délka: 078-52-48W, výška: 57 m

Aktuální stav počasí

Zpráva byla vytvořena před 15 minutami, v 22:53 UTC
Západojihozápadní vítr 13 kt
Teplota 13°C
Vlhkost vzduchu 67%
Tlak 1003 hPa
Viditelnost: 16.1 km
Zataženo ve výšce 4500 ft

METAR: KFAY 302253Z 24013KT 10SM OVC045 13/07 A2961 RMK AO2 SLP022 T01330067

Čas: 18:08 (23:08 UTC)

Předpověď počasí

Zpráva byla vytvořena před 5 hodinami a 28 minutami, v 17:40 UTC
Předpověď platná od 30 v 18 UTC do 01 v 18 UTC
Západojihozápadní vítr 15 kt s nárazy do 30 kt
Viditelnost: 10 km
Oblačno až skoro zataženo ve výšce 5000 ft
Zataženo ve výšce 25000 ft
Od 01 v 0100 UTC
Západojihozápadní vítr 11 kt s nárazy do 19 kt
Viditelnost: 10 km
Zataženo ve výšce 5000 ft
Od 01 v 1200 UTC
Západní vítr 10 kt
Viditelnost: 10 km
Jasno

TAF: KFAY 301740Z 3018/0118 24015G30KT P6SM BKN050 OVC250 FM010100 25011G19KT P6SM OVC050 FM011200 26010KT P6SM SKC

Stav a předpovědi počasí z více než 4 000 letišť (zprávy METAR a TAF).

Červené a žluté tečky na mapě představují dostupné meteorologické stanice.

Když kurzor umístíte na tečku, zobrazí se název stanice.

Pak kliknutím zobrazíte stav a předpověď počasí.

Chcete-li změnit mapu, kliknutím na zelené tlačítko se znaménkem +mapu přiblížíte, kliknutím na zelené tlačítko se znaménkem – mapu oddálíte a kliknutím na zelené šipky přejdete na sousední mapy.


METAR-TAF: